Time;durP1;ratioP1;P1;durP2;ratioP2;P2;SDS_P1;SDS_P2;PMS_P1;PMS_P2;Temp;Humidity;BMP_temperature;BMP_pressure;BME280_temperature;BME280_humidity;BME280_pressure;Samples;Min_cycle;Max_cycle;Signal;HPM_P1;HPM_P2
2023/09/28 00:01:22;;;;;;;22.90;17.00;;;;;;;12.54;100.00;99614.02;268439;1269;6717252;-83
2023/09/28 00:07:24;;;;;;;35.40;17.00;;;;;;;12.50;100.00;99619.78;273712;1276;23029;-82
2023/09/28 00:13:46;;;;;;;25.00;16.80;;;;;;;12.50;100.00;99618.61;273798;1276;22354;-82
2023/09/28 00:19:48;;;;;;;21.30;13.80;;;;;;;12.51;100.00;99619.23;273581;1269;22665;-82
2023/09/28 00:25:51;;;;;;;24.80;14.20;;;;;;;12.49;100.00;99619.77;270736;1269;25303;-82
2023/09/28 00:32:13;;;;;;;24.60;14.60;;;;;;;12.49;100.00;99618.05;273292;1269;22194;-82
2023/09/28 00:38:33;;;;;;;22.00;15.00;;;;;;;12.44;100.00;99616.87;273775;1272;22199;-82
2023/09/28 00:44:35;;;;;;;17.40;13.00;;;;;;;12.42;100.00;99618.17;272155;1269;22520;-82
2023/09/28 00:51:20;;;;;;;17.50;11.80;;;;;;;12.35;100.00;99619.02;272258;1269;23241;-82
2023/09/28 00:58:08;;;;;;;19.00;12.90;;;;;;;12.25;100.00;99617.16;271795;1269;22397;-82
2023/09/28 01:04:33;;;;;;;22.30;13.30;;;;;;;12.17;100.00;99621.60;273733;1269;22149;-83
2023/09/28 01:10:36;;;;;;;21.20;13.00;;;;;;;12.10;100.00;99618.75;273812;1269;22950;-84
2023/09/28 01:17:04;;;;;;;19.10;13.40;;;;;;;12.03;100.00;99622.80;273722;1269;22201;-83
2023/09/28 01:23:26;;;;;;;16.50;11.20;;;;;;;11.91;100.00;99619.08;273872;1270;22191;-83
2023/09/28 01:29:28;;;;;;;22.30;12.60;;;;;;;11.84;100.00;99629.62;273892;1269;22289;-83
2023/09/28 01:35:33;;;;;;;19.40;12.70;;;;;;;11.77;100.00;99627.33;273887;1270;22255;-83
2023/09/28 01:41:58;;;;;;;17.70;10.70;;;;;;;11.71;100.00;99624.71;273928;1272;22243;-83
2023/09/28 01:48:25;;;;;;;16.10;11.80;;;;;;;11.61;100.00;99622.56;273722;1269;22280;-83
2023/09/28 01:55:07;;;;;;;24.60;11.90;;;;;;;11.54;100.00;99622.67;273939;1270;23367;-83
2023/09/28 02:02:11;;;;;;;20.10;11.40;;;;;;;11.51;100.00;99625.36;273741;1268;23543;-83
2023/09/28 02:15:56;;;;;;;20.50;13.90;;;;;;;11.60;100.00;99619.02;273826;1275;23482;-83
2023/09/28 02:22:23;;;;;;;19.90;12.70;;;;;;;11.67;100.00;99616.41;273178;1270;22998;-83
2023/09/28 02:28:25;;;;;;;;;;;;;;;11.72;100.00;99616.60;273510;1270;23126;-83
2023/09/28 02:34:27;;;;;;;24.90;15.10;;;;;;;11.76;100.00;99617.27;270843;1272;23799;-83
2023/09/28 02:40:49;;;;;;;31.20;14.80;;;;;;;11.76;100.00;99617.98;271384;1269;22693;-83
2023/09/28 02:47:35;;;;;;;27.50;15.40;;;;;;;11.76;100.00;99618.20;270533;1269;24365;-83
2023/09/28 02:53:40;;;;;;;27.30;14.50;;;;;;;11.69;100.00;99619.50;271304;1269;22926;-83
2023/09/28 03:07:31;;;;;;;27.60;16.20;;;;;;;11.57;100.00;99621.71;273705;1275;23746;-83
2023/09/28 03:14:19;;;;;;;25.70;14.50;;;;;;;11.58;100.00;99624.86;272864;1269;23881;-83
2023/09/28 03:20:21;;;;;;;25.00;15.80;;;;;;;11.55;100.00;99628.16;271931;1268;22476;-83
2023/09/28 03:26:51;;;;;;;24.00;14.70;;;;;;;11.54;100.00;99617.56;273682;1270;22971;-83
2023/09/28 03:33:04;;;;;;;21.70;14.40;;;;;;;11.50;100.00;99619.71;273935;1272;22165;-83
2023/09/28 03:39:27;;;;;;;21.20;15.40;;;;;;;11.44;100.00;99625.33;273938;1269;22152;-83
2023/09/28 03:46:03;;;;;;;25.00;14.50;;;;;;;11.39;100.00;99628.20;273609;1269;22620;-83
2023/09/28 03:52:45;;;;;;;25.50;14.50;;;;;;;11.35;100.00;99629.71;273761;1275;22309;-83
2023/09/28 03:58:47;;;;;;;30.60;15.00;;;;;;;11.34;100.00;99626.61;273306;1269;22317;-83
2023/09/28 04:05:31;;;;;;;25.80;14.50;;;;;;;11.32;100.00;99622.27;273778;1273;22213;-83
2023/09/28 04:12:19;;;;;;;28.60;14.60;;;;;;;11.30;100.00;99622.70;273769;1269;23039;-83
2023/09/28 04:18:20;;;;;;;20.50;13.10;;;;;;;11.26;100.00;99618.41;272327;1272;24165;-83
2023/09/28 04:24:22;;;;;;;23.20;14.10;;;;;;;11.23;100.00;99618.82;271298;1269;22536;-83
2023/09/28 04:30:24;;;;;;;19.40;13.40;;;;;;;11.21;100.00;99621.60;273428;1272;22214;-83
2023/09/28 04:37:06;;;;;;;19.80;13.90;;;;;;;11.19;100.00;99623.39;273883;1270;22211;-83
2023/09/28 04:43:17;;;;;;;18.60;14.10;;;;;;;11.13;100.00;99622.55;273575;1273;22211;-83
2023/09/28 04:49:22;;;;;;;19.30;13.50;;;;;;;11.03;100.00;99625.27;273758;1275;22220;-83
2023/09/28 04:55:46;;;;;;;22.50;15.10;;;;;;;10.95;100.00;99633.73;273731;1269;22421;-83
2023/09/28 05:01:49;;;;;;;21.50;14.70;;;;;;;10.90;100.00;99634.79;273820;1269;22182;-83
2023/09/28 05:08:32;;;;;;;21.90;14.50;;;;;;;10.85;100.00;99633.98;273667;1269;22779;-83
2023/09/28 05:15:15;;;;;;;26.90;15.60;;;;;;;10.86;100.00;99634.55;273820;1269;22204;-82
2023/09/28 05:21:39;;;;;;;27.10;15.80;;;;;;;10.90;100.00;99640.27;273927;1273;22766;-83
2023/09/28 05:28:21;;;;;;;26.90;16.10;;;;;;;10.95;100.00;99642.32;273801;1269;22249;-82
2023/09/28 05:35:18;;;;;;;26.80;15.80;;;;;;;11.02;100.00;99637.14;273921;1275;22232;-83
2023/09/28 05:42:08;;;;;;;23.70;16.10;;;;;;;11.11;100.00;99642.40;273803;1269;22189;-82
2023/09/28 05:49:11;;;;;;;22.30;17.00;;;;;;;11.28;100.00;99650.02;273894;1275;22377;-82
2023/09/28 05:56:07;;;;;;;21.70;16.20;;;;;;;11.55;100.00;99650.83;273640;1270;22196;-82
2023/09/28 06:02:29;;;;;;;23.00;15.70;;;;;;;11.93;100.00;99651.64;273459;1269;23654;-83
2023/09/28 06:09:06;;;;;;;31.00;16.60;;;;;;;12.28;100.00;99658.70;273566;1274;22183;-82
2023/09/28 06:15:09;;;;;;;21.00;15.40;;;;;;;12.66;100.00;99660.63;273709;1265;22181;-82
2023/09/28 06:21:13;;;;;;;18.20;14.10;;;;;;;13.01;100.00;99664.94;273446;1270;22429;-83
2023/09/28 06:27:17;;;;;;;19.30;13.40;;;;;;;13.34;100.00;99667.76;273569;1269;22236;-82
2023/09/28 06:33:46;;;;;;;20.60;13.60;;;;;;;13.65;100.00;99672.55;273524;1277;22391;-82
2023/09/28 06:40:09;;;;;;;18.40;12.60;;;;;;;13.85;100.00;99671.56;273713;1276;22227;-83
2023/09/28 06:46:11;;;;;;;22.20;13.50;;;;;;;14.02;100.00;99670.14;273697;1270;23152;-84
2023/09/28 06:52:39;;;;;;;19.20;14.50;;;;;;;14.15;100.00;99672.30;273700;1269;23046;-83
2023/09/28 06:59:01;;;;;;;21.90;15.20;;;;;;;14.31;100.00;99676.75;273950;1273;22364;-83
2023/09/28 07:05:58;;;;;;;28.00;16.50;;;;;;;14.46;100.00;99680.33;273910;1269;22154;-83
2023/09/28 07:12:34;;;;;;;;;;;;;;;14.63;100.00;99681.84;273923;1273;22381;-83
2023/09/28 07:18:57;;;;;;;26.50;15.30;;;;;;;14.83;100.00;99680.91;273795;1269;22175;-83
2023/09/28 07:25:51;;;;;;;26.00;18.70;;;;;;;15.09;100.00;99678.04;273795;1257;22421;-83
2023/09/28 07:32:19;;;;;;;20.40;16.30;;;;;;;15.44;100.00;99674.15;273104;1269;22598;-82
2023/09/28 07:38:21;;;;;;;25.90;17.10;;;;;;;15.93;100.00;99669.88;272732;1260;27849;-83
2023/09/28 07:44:23;;;;;;;28.30;16.50;;;;;;;16.38;100.00;99664.34;273760;1269;24321;-82
2023/09/28 07:51:07;;;;;;;23.40;14.60;;;;;;;16.80;100.00;99662.76;273979;1269;22430;-82
2023/09/28 07:57:29;;;;;;;22.60;13.70;;;;;;;17.28;100.00;99658.92;272164;1269;24241;-82
2023/09/28 08:03:31;;;;;;;17.30;12.60;;;;;;;17.77;100.00;99654.52;273304;1269;22167;-82
2023/09/28 08:09:33;;;;;;;17.90;11.70;;;;;;;18.19;100.00;99650.86;273852;1269;22277;-82
2023/09/28 08:15:38;;;;;;;17.80;11.10;;;;;;;18.63;100.00;99648.61;273813;1267;22407;-82
2023/09/28 08:21:54;;;;;;;17.60;11.60;;;;;;;19.01;100.00;99649.20;273882;1269;22248;-83
2023/09/28 08:28:16;;;;;;;15.70;10.40;;;;;;;19.34;100.00;99649.49;273722;1258;23146;-82
2023/09/28 08:34:18;;;;;;;16.10;10.10;;;;;;;19.90;100.00;99646.73;273748;1269;22400;-83
2023/09/28 08:40:46;;;;;;;13.60;9.70;;;;;;;20.53;100.00;99646.92;273848;1268;22375;-83
2023/09/28 08:46:58;;;;;;;12.10;9.70;;;;;;;21.39;100.00;99648.83;273882;1269;22348;-83
2023/09/28 08:53:06;;;;;;;14.70;8.70;;;;;;;22.28;100.00;99643.23;273899;1269;22666;-83
2023/09/28 08:59:30;;;;;;;12.40;8.20;;;;;;;23.14;100.00;99641.33;273825;1270;23075;-83
2023/09/28 09:05:32;;;;;;;13.30;7.90;;;;;;;24.20;100.00;99642.93;273784;1270;23338;-83
2023/09/28 09:11:37;;;;;;;16.80;7.60;;;;;;;25.20;100.00;99639.90;273820;1267;23327;-84
2023/09/28 09:17:39;;;;;;;11.50;6.40;;;;;;;26.05;98.81;99637.35;273738;1266;22183;-84
2023/09/28 09:24:14;;;;;;;9.90;5.80;;;;;;;26.93;96.77;99635.23;273899;1267;23237;-83
2023/09/28 09:30:17;;;;;;;11.80;5.70;;;;;;;27.90;94.16;99627.50;273185;1268;22495;-83
2023/09/28 09:37:15;;;;;;;8.40;4.90;;;;;;;28.62;90.03;99626.31;273975;1269;22246;-83
2023/09/28 09:44:18;;;;;;;9.20;5.60;;;;;;;29.14;85.61;99621.27;273710;1269;22101;-84
2023/09/28 09:50:47;;;;;;;9.00;4.60;;;;;;;29.31;81.75;99614.77;273865;1265;22207;-84
2023/09/28 09:57:14;;;;;;;5.90;4.20;;;;;;;29.31;77.32;99610.33;273968;1269;22188;-84
2023/09/28 10:03:38;;;;;;;11.20;5.80;;;;;;;29.39;74.28;99610.27;273744;1269;22186;-84
2023/09/28 10:10:05;;;;;;;7.90;5.30;;;;;;;29.29;66.35;99609.58;273979;1270;22172;-84
2023/09/28 10:16:08;;;;;;;7.20;4.40;;;;;;;28.98;62.57;99602.55;272083;1270;27644;-83
2023/09/28 10:22:22;;;;;;;6.80;4.00;;;;;;;29.20;62.03;99598.70;271442;1260;22536;-82
2023/09/28 10:28:24;;;;;;;8.50;4.50;;;;;;;29.17;56.81;99596.59;270998;1268;22543;-83
2023/09/28 10:34:27;;;;;;;8.70;4.50;;;;;;;29.28;58.38;99596.27;271206;1269;22555;-83
2023/09/28 10:40:28;;;;;;;6.30;4.70;;;;;;;29.52;57.44;99595.90;271348;1267;23253;-83
2023/09/28 10:46:30;;;;;;;7.50;4.30;;;;;;;29.48;56.43;99591.98;273989;1271;22210;-83
2023/09/28 10:52:35;;;;;;;5.00;4.00;;;;;;;29.18;53.31;99591.02;273278;1267;22534;-83
2023/09/28 10:58:49;;;;;;;6.10;4.30;;;;;;;28.77;51.54;99589.13;270601;1267;22258;-84
2023/09/28 11:06:12;;;;;;;11.90;4.70;;;;;;;28.39;51.04;99583.88;271950;1269;22219;-84
2023/09/28 11:12:21;;;;;;;7.60;4.50;;;;;;;28.02;50.23;99580.01;273859;1269;22185;-83
2023/09/28 11:18:49;;;;;;;7.40;4.20;;;;;;;27.87;51.19;99573.76;273879;1269;22240;-83
2023/09/28 11:25:17;;;;;;;10.60;4.90;;;;;;;27.58;50.03;99571.21;273682;1269;22515;-83
2023/09/28 11:32:10;;;;;;;7.10;4.40;;;;;;;27.16;49.46;99564.84;273500;1271;22967;-82
2023/09/28 11:38:35;;;;;;;8.70;4.30;;;;;;;26.96;49.86;99563.92;273334;1270;23042;-82
2023/09/28 11:45:17;;;;;;;7.40;4.20;;;;;;;26.78;49.90;99557.08;273385;1270;22383;-84
2023/09/28 11:51:35;;;;;;;10.50;4.40;;;;;;;26.64;50.56;99550.20;273644;1277;24034;-84
2023/09/28 11:57:57;;;;;;;9.90;4.10;;;;;;;26.53;50.98;99546.27;265966;1269;10137756;-83
2023/09/28 12:04:02;;;;;;;7.30;4.70;;;;;;;26.37;51.34;99536.11;273772;1269;22373;-83
2023/09/28 12:10:42;;;;;;;8.90;4.00;;;;;;;26.25;51.46;99531.91;273730;1269;22254;-83
2023/09/28 12:17:03;;;;;;;9.90;4.50;;;;;;;26.18;51.43;99532.63;273679;1276;22284;-83
2023/09/28 12:23:10;;;;;;;9.60;4.30;;;;;;;26.07;51.93;99530.02;273831;1261;23243;-83
2023/09/28 12:29:36;;;;;;;5.60;4.20;;;;;;;25.95;52.26;99534.08;273838;1269;22182;-83
2023/09/28 12:36:44;;;;;;;6.10;4.10;;;;;;;25.78;52.78;99529.73;273882;1269;22368;-83
2023/09/28 12:43:39;;;;;;;6.20;3.80;;;;;;;25.64;53.19;99526.02;273632;1269;22195;-83
2023/09/28 12:50:05;;;;;;;6.10;4.30;;;;;;;25.54;53.85;99523.39;273776;1268;22248;-83
2023/09/28 12:56:09;;;;;;;9.60;4.40;;;;;;;25.39;54.26;99523.22;274013;1269;23620;-83
2023/09/28 13:03:06;;;;;;;16.80;4.60;;;;;;;25.26;54.81;99519.95;273644;1269;22425;-83
2023/09/28 13:10:24;;;;;;;10.30;4.40;;;;;;;25.24;54.98;99515.48;273897;1269;22239;-83
2023/09/28 13:17:38;;;;;;;5.60;3.80;;;;;;;25.19;55.35;99514.37;273989;1269;23400;-82
2023/09/28 13:24:08;;;;;;;8.80;4.10;;;;;;;25.06;54.97;99504.02;273781;1272;22854;-83
2023/09/28 13:30:12;;;;;;;7.20;4.80;;;;;;;25.04;55.30;99506.68;273754;1268;23472;-83
2023/09/28 13:37:10;;;;;;;9.30;4.60;;;;;;;24.95;55.90;99506.86;273766;1268;22268;-82
2023/09/28 13:44:07;;;;;;;10.90;4.80;;;;;;;24.84;56.13;99504.88;273768;1259;22969;-83
2023/09/28 13:50:11;;;;;;;9.60;4.80;;;;;;;24.90;55.94;99501.86;273800;1269;22441;-83
2023/09/28 13:56:23;;;;;;;9.90;4.70;;;;;;;24.85;56.14;99497.19;274052;1275;22204;-82
2023/09/28 14:10:21;;;;;;;7.20;5.20;;;;;;;24.67;57.58;99488.41;273873;1268;22235;-82
2023/09/28 14:16:43;;;;;;;7.10;4.90;;;;;;;24.65;58.16;99484.94;273961;1269;23758;-83
2023/09/28 14:22:47;;;;;;;13.90;5.80;;;;;;;24.66;58.67;99481.89;273759;1267;22209;-83
2023/09/28 14:29:17;;;;;;;8.00;5.00;;;;;;;24.64;58.62;99481.86;273268;1268;22197;-83
2023/09/28 14:35:58;;;;;;;;;;;;;;;24.59;59.22;99479.81;271924;1272;22484;-83
2023/09/28 14:42:24;;;;;;;8.00;5.30;;;;;;;24.45;59.80;99482.92;272954;1272;22232;-82
2023/09/28 14:48:46;;;;;;;9.80;4.70;;;;;;;24.29;59.97;99480.14;273042;1272;22960;-83
2023/09/28 14:55:44;;;;;;;8.50;4.40;;;;;;;24.19;60.10;99481.49;272945;1272;22230;-83
2023/09/28 15:02:13;;;;;;;11.90;4.90;;;;;;;24.03;60.49;99488.10;272986;1272;22314;-82
2023/09/28 15:09:05;;;;;;;8.40;4.60;;;;;;;23.85;61.14;99486.80;273701;1272;24032;-82
2023/09/28 15:15:29;;;;;;;7.40;4.90;;;;;;;23.67;61.53;99484.42;273589;1269;22341;-82
2023/09/28 15:21:33;;;;;;;6.10;4.00;;;;;;;23.51;62.08;99481.36;272923;1269;24659;-82
2023/09/28 15:27:57;;;;;;;10.10;4.60;;;;;;;23.39;62.81;99483.39;270535;1270;23983;-83
2023/09/28 15:34:42;;;;;;;7.70;4.80;;;;;;;23.23;63.32;99484.28;273715;1272;23342;-84
2023/09/28 15:41:55;;;;;;;10.40;4.80;;;;;;;23.06;64.04;99488.63;273956;1272;22189;-82
2023/09/28 15:48:14;;;;;;;7.30;4.60;;;;;;;22.90;64.99;99489.23;273859;1269;22196;-83
2023/09/28 15:54:16;;;;;;;8.90;5.10;;;;;;;22.69;67.00;99485.47;273780;1269;22290;-83
2023/09/28 16:00:18;;;;;;;8.90;4.70;;;;;;;22.48;67.73;99491.29;273668;1263;22551;-83
2023/09/28 16:06:20;;;;;;;6.20;5.20;;;;;;;22.25;69.26;99490.55;270348;1268;25421;-83
2023/09/28 16:12:27;;;;;;;11.30;5.00;;;;;;;21.95;69.59;99483.51;271240;1269;22164;-83
2023/09/28 16:18:49;;;;;;;11.80;5.50;;;;;;;21.64;70.52;99486.21;271116;1269;22540;-84
2023/09/28 16:24:51;;;;;;;13.90;5.60;;;;;;;21.34;71.76;99483.46;271264;1269;23118;-85
2023/09/28 16:30:53;;;;;;;11.50;6.10;;;;;;;21.01;72.81;99482.83;271553;1253;22531;-83
2023/09/28 16:37:16;;;;;;;29.30;17.70;;;;;;;20.71;74.30;99481.02;271676;1269;22491;-84
2023/09/28 16:43:18;;;;;;;25.90;15.90;;;;;;;20.36;74.90;99479.96;271674;1269;22667;-84
2023/09/28 16:49:40;;;;;;;15.00;10.40;;;;;;;20.07;76.10;99479.02;272463;1266;22384;-83
2023/09/28 16:55:44;;;;;;;16.90;9.40;;;;;;;19.85;77.65;99480.70;272207;1269;22555;-83
2023/09/28 17:02:26;;;;;;;13.70;9.20;;;;;;;19.64;78.43;99482.58;273933;1269;22190;-83
2023/09/28 17:09:18;;;;;;;12.90;7.50;;;;;;;19.46;79.46;99486.21;273845;1270;22282;-84
2023/09/28 17:16:10;;;;;;;16.10;9.30;;;;;;;19.26;80.88;99493.28;273939;1269;22186;-83
2023/09/28 17:22:32;;;;;;;13.60;8.80;;;;;;;19.03;81.60;99500.68;273972;1275;23322;-83
2023/09/28 17:29:14;;;;;;;13.40;8.20;;;;;;;18.92;82.40;99505.30;273881;1269;22855;-84
2023/09/28 17:36:37;;;;;;;18.30;11.50;;;;;;;18.66;83.34;99511.36;274055;1272;22209;-84
2023/09/28 17:43:49;;;;;;;21.80;14.00;;;;;;;18.34;84.21;99510.30;273899;1272;22272;-83
2023/09/28 17:49:54;;;;;;;24.90;11.40;;;;;;;18.10;85.27;99517.39;273869;1275;22235;-83
2023/09/28 17:56:21;;;;;;;34.00;20.20;;;;;;;17.83;85.72;99520.75;273960;1270;23001;-84
2023/09/28 18:02:46;;;;;;;35.90;21.80;;;;;;;17.54;86.70;99518.48;274042;1275;22371;-84
2023/09/28 18:09:17;;;;;;;41.70;22.10;;;;;;;17.36;88.25;99526.77;273838;1269;22243;-83
2023/09/28 18:15:28;;;;;;;30.50;18.90;;;;;;;17.31;89.37;99535.17;273954;1275;22541;-84
2023/09/28 18:22:14;;;;;;;29.00;17.20;;;;;;;17.16;89.76;99534.41;273703;1270;23263;-83
2023/09/28 18:28:56;;;;;;;19.80;13.60;;;;;;;16.99;90.01;99538.16;271415;1269;22702;-83
2023/09/28 18:34:58;;;;;;;19.70;13.90;;;;;;;16.83;90.76;99544.33;273734;1268;22593;-83
2023/09/28 18:41:37;;;;;;;29.60;13.60;;;;;;;16.71;91.29;99544.23;270302;1269;22562;-83
2023/09/28 18:55:18;;;;;;;14.50;11.90;;;;;;;16.35;92.47;99561.41;273864;1269;22167;-83
2023/09/28 19:01:36;;;;;;;23.40;13.60;;;;;;;16.14;93.29;99565.33;273871;1275;22705;-84
2023/09/28 19:07:39;;;;;;;19.30;12.60;;;;;;;16.01;93.91;99566.69;273803;1269;22179;-83
2023/09/28 19:13:42;;;;;;;23.10;12.30;;;;;;;15.89;94.43;99574.36;273812;1263;23145;-84
2023/09/28 19:20:50;;;;;;;13.90;10.00;;;;;;;15.82;95.30;99579.40;273954;1270;22183;-83
2023/09/28 19:26:51;;;;;;;18.80;10.20;;;;;;;15.77;95.91;99588.48;273760;1269;22272;-83
2023/09/28 19:40:19;;;;;;;19.90;12.40;;;;;;;15.46;96.34;99597.77;273849;1269;22188;-83
2023/09/28 19:47:01;;;;;;;19.70;12.20;;;;;;;15.31;96.91;99593.32;273963;1269;22135;-84
2023/09/28 19:53:46;;;;;;;19.30;11.80;;;;;;;15.22;97.74;99597.87;273773;1269;22222;-83
2023/09/28 20:00:20;;;;;;;19.40;10.40;;;;;;;15.13;98.48;99598.88;273909;1271;22687;-83
2023/09/28 20:06:22;;;;;;;;;;;;;;;15.14;99.36;99604.79;273398;1269;22486;-84
2023/09/28 20:12:24;;;;;;;22.20;9.90;;;;;;;15.19;99.92;99607.95;271628;1269;22572;-84
2023/09/28 20:18:50;;;;;;;13.30;9.30;;;;;;;15.13;99.94;99615.42;272108;1270;22530;-84
2023/09/28 20:24:52;;;;;;;24.90;12.50;;;;;;;15.01;99.90;99612.40;272319;1270;22698;-84
2023/09/28 20:30:54;;;;;;;21.50;12.40;;;;;;;14.89;100.00;99610.77;270685;1269;22632;-84
2023/09/28 20:36:56;;;;;;;18.70;13.10;;;;;;;14.77;100.00;99612.23;272480;1269;23982;-84
2023/09/28 20:43:19;;;;;;;18.90;12.70;;;;;;;14.65;100.00;99612.02;273549;1270;22391;-84
2023/09/28 20:49:20;;;;;;;21.20;13.20;;;;;;;14.51;100.00;99615.02;273656;1269;22444;-84
2023/09/28 20:55:23;;;;;;;17.60;13.30;;;;;;;14.44;100.00;99618.52;273935;1276;22184;-84
2023/09/28 21:01:46;;;;;;;23.70;14.00;;;;;;;14.40;100.00;99622.27;273581;1277;22268;-83
2023/09/28 21:07:53;;;;;;;21.60;13.90;;;;;;;14.35;100.00;99620.44;273794;1273;22157;-84
2023/09/28 21:14:19;;;;;;;;;;;;;;;14.32;100.00;99628.14;272994;1272;22552;-83
2023/09/28 21:20:43;;;;;;;22.40;13.50;;;;;;;14.28;100.00;99632.11;273862;1269;23870;-83
2023/09/28 21:27:44;;;;;;;24.80;13.80;;;;;;;14.21;100.00;99630.40;273771;1272;23188;-84
2023/09/28 21:33:56;;;;;;;25.70;14.00;;;;;;;14.13;100.00;99623.11;273946;1272;22378;-83
2023/09/28 21:40:08;;;;;;;21.00;14.00;;;;;;;14.02;100.00;99624.61;274009;1267;22460;-83
2023/09/28 21:46:34;;;;;;;19.80;13.80;;;;;;;13.97;100.00;99625.67;273991;1269;22215;-83
2023/09/28 21:52:39;;;;;;;17.10;13.20;;;;;;;13.94;100.00;99629.58;274038;1273;22223;-83
2023/09/28 21:59:05;;;;;;;21.00;13.80;;;;;;;13.85;100.00;99628.00;272880;1273;24718;-84
2023/09/28 22:05:30;;;;;;;18.80;12.50;;;;;;;13.78;100.00;99631.89;273728;1273;22389;-83
2023/09/28 22:11:32;;;;;;;24.90;14.30;;;;;;;13.67;100.00;99637.21;274025;1269;22199;-83
2023/09/28 22:18:16;;;;;;;22.50;14.00;;;;;;;13.62;100.00;99635.98;274056;1275;22375;-83
2023/09/28 22:24:38;;;;;;;21.50;12.10;;;;;;;13.54;100.00;99641.95;273941;1274;22973;-83
2023/09/28 22:30:44;;;;;;;20.10;11.80;;;;;;;13.47;100.00;99642.60;273897;1271;22243;-83
2023/09/28 22:37:11;;;;;;;19.20;12.60;;;;;;;13.44;100.00;99643.52;273924;1273;22248;-83
2023/09/28 22:43:33;;;;;;;16.70;10.60;;;;;;;13.42;100.00;99647.27;273545;1270;22348;-83
2023/09/28 22:49:34;;;;;;;16.10;11.40;;;;;;;13.43;100.00;99649.78;272329;1269;22389;-84
2023/09/28 22:56:17;;;;;;;17.90;13.10;;;;;;;13.42;100.00;99651.27;273629;1269;22186;-83
2023/09/28 23:03:09;;;;;;;16.30;13.40;;;;;;;13.37;100.00;99650.60;271865;1269;22198;-83
2023/09/28 23:09:14;;;;;;;25.30;13.70;;;;;;;13.30;100.00;99647.23;273809;1270;22250;-83
2023/09/28 23:16:28;;;;;;;19.60;12.50;;;;;;;13.22;100.00;99644.07;273825;1272;22190;-83
2023/09/28 23:23:10;;;;;;;16.70;10.30;;;;;;;13.13;100.00;99638.39;272920;1270;22548;-84
2023/09/28 23:29:17;;;;;;;23.80;11.40;;;;;;;13.02;100.00;99642.50;270628;1269;22531;-83
2023/09/28 23:35:22;;;;;;;16.00;10.50;;;;;;;12.93;100.00;99639.70;270630;1267;22542;-83
2023/09/28 23:41:25;;;;;;;17.40;12.20;;;;;;;12.86;100.00;99643.63;270613;1270;22545;-81
2023/09/28 23:47:27;;;;;;;19.70;12.70;;;;;;;12.79;100.00;99648.86;272931;1269;22400;-81
